Time;durP1;ratioP1;P1;durP2;ratioP2;P2;SDS_P1;SDS_P2;PMS_P1;PMS_P2;Temp;Humidity;BMP_temperature;BMP_pressure;BME280_temperature;BME280_humidity;BME280_pressure;Samples;Min_cycle;Max_cycle;Signal;HPM_P1;HPM_P2
2021/12/24 00:00:26;;;;;;;;;;;6.00;56.30;;;;;;5115543;28;19912;-65
2021/12/24 00:02:54;;;;;;;;;;;6.00;56.30;;;;;;5116983;28;19908;-64
2021/12/24 00:05:20;;;;;;;;;;;6.00;56.30;;;;;;5116958;28;20307;-65
2021/12/24 00:07:46;;;;;;;;;;;6.00;56.30;;;;;;5116897;28;19907;-65
2021/12/24 00:10:12;;;;;;;;;;;6.00;56.20;;;;;;5116784;28;19937;-65
2021/12/24 00:12:42;;;;;;;;;;;6.10;56.30;;;;;;5116830;28;19908;-64
2021/12/24 00:15:26;;;;;;;;;;;6.10;56.30;;;;;;5116440;28;19943;-65
2021/12/24 00:17:59;;;;;;;;;;;6.10;56.30;;;;;;5116710;28;19918;-64
2021/12/24 00:21:32;;;;;;;;;;;6.00;56.20;;;;;;5115454;28;19996;-65
2021/12/24 00:36:51;;;;;;;;;;;6.00;56.40;;;;;;5116374;28;19915;-64
2021/12/24 00:39:17;;;;;;;;;;;6.00;56.50;;;;;;5116221;28;19908;-65
2021/12/24 00:41:42;;;;;;;;;;;6.00;56.50;;;;;;5116175;28;19915;-64
2021/12/24 00:44:08;;;;;;;;;;;6.00;56.50;;;;;;5116086;28;19915;-64
2021/12/24 00:46:34;;;;;;;;;;;6.00;56.50;;;;;;5116042;28;19908;-64
2021/12/24 00:49:01;;;;;;;;;;;6.00;56.50;;;;;;5116062;28;19941;-65
2021/12/24 00:51:55;;;;;;;;;;;6.00;56.50;;;;;;5115945;28;19912;-65
2021/12/24 00:57:00;;;;;;;;;;;5.90;56.50;;;;;;5116181;28;19914;-64
2021/12/24 00:59:25;;;;;;;;;;;5.80;56.60;;;;;;5115866;28;20006;-64
2021/12/24 01:01:51;;;;;;;;;;;5.80;56.70;;;;;;5115750;28;19915;-65
2021/12/24 01:04:17;;;;;;;;;;;5.80;56.80;;;;;;5115769;28;19959;-64
2021/12/24 01:06:43;;;;;;;;;;;5.70;56.90;;;;;;5115689;28;19908;-64
2021/12/24 01:09:09;;;;;;;;;;;5.70;57.60;;;;;;5115652;28;19955;-65
2021/12/24 01:11:35;;;;;;;;;;;5.70;57.00;;;;;;5115506;28;20345;-65
2021/12/24 01:14:01;;;;;;;;;;;5.70;57.10;;;;;;5115493;28;19907;-65
2021/12/24 01:16:51;;;;;;;;;;;5.70;57.10;;;;;;5115324;28;20019;-65
2021/12/24 01:19:22;;;;;;;;;;;5.70;57.20;;;;;;5115780;28;19907;-65
2021/12/24 01:22:18;;;;;;;;;;;5.80;57.40;;;;;;5115456;28;20250;-65
2021/12/24 01:24:46;;;;;;;;;;;5.80;57.40;;;;;;5115226;28;19999;-65
2021/12/24 01:42:47;;;;;;;;;;;6.00;57.30;;;;;;5115343;28;19998;-64
2021/12/24 01:45:17;;;;;;;;;;;6.10;57.40;;;;;;5115004;28;19908;-65
2021/12/24 01:47:43;;;;;;;;;;;6.10;57.30;;;;;;5114997;28;19908;-64
2021/12/24 01:50:09;;;;;;;;;;;6.00;57.30;;;;;;5114853;28;19968;-64
2021/12/24 01:52:35;;;;;;;;;;;6.00;57.40;;;;;;5115079;28;19911;-64
2021/12/24 01:55:01;;;;;;;;;;;6.00;57.50;;;;;;5114782;28;19908;-64
2021/12/24 01:57:26;;;;;;;;;;;6.00;57.50;;;;;;5114748;28;19908;-65
2021/12/24 01:59:52;;;;;;;;;;;5.90;57.60;;;;;;5114702;28;20339;-65
2021/12/24 02:02:18;;;;;;;;;;;5.90;57.70;;;;;;5114526;28;19911;-65
2021/12/24 02:04:43;;;;;;;;;;;5.80;57.80;;;;;;5114486;28;19907;-64
2021/12/24 02:07:09;;;;;;;;;;;5.80;57.90;;;;;;5114389;28;19907;-65
2021/12/24 02:09:36;;;;;;;;;;;5.80;58.00;;;;;;5114565;28;19908;-64
2021/12/24 02:12:05;;;;;;;;;;;5.80;58.10;;;;;;5114307;27;19914;-65
2021/12/24 02:14:36;;;;;;;;;;;5.70;58.20;;;;;;5114194;28;20288;-65
2021/12/24 02:30:32;;;;;;;;;;;6.00;58.50;;;;;;5113949;28;20326;-64
2021/12/24 02:32:58;;;;;;;;;;;6.00;58.40;;;;;;5114010;28;19912;-64
2021/12/24 02:35:24;;;;;;;;;;;6.10;58.40;;;;;;5113962;28;20037;-65
2021/12/24 02:37:50;;;;;;;;;;;6.10;58.30;;;;;;5113996;28;19938;-65
2021/12/24 02:40:17;;;;;;;;;;;6.20;58.40;;;;;;5113936;28;19908;-65
2021/12/24 02:42:49;;;;;;;;;;;6.20;58.20;;;;;;5113862;28;19907;-65
2021/12/24 02:45:14;;;;;;;;;;;6.20;58.00;;;;;;5113882;28;20005;-65
2021/12/24 02:47:57;;;;;;;;;;;6.20;57.90;;;;;;5113779;28;19943;-65
2021/12/24 02:55:34;;;;;;;;;;;6.20;57.70;;;;;;5114097;28;19915;-64
2021/12/24 02:58:00;;;;;;;;;;;6.10;57.70;;;;;;5113606;28;19908;-65
2021/12/24 03:00:27;;;;;;;;;;;6.10;57.70;;;;;;5113676;28;19933;-64
2021/12/24 03:02:53;;;;;;;;;;;6.10;57.70;;;;;;5113641;28;19908;-65
2021/12/24 03:05:20;;;;;;;;;;;6.10;57.80;;;;;;5113554;28;19908;-65
2021/12/24 03:07:45;;;;;;;;;;;6.10;57.90;;;;;;5113588;28;19914;-64
2021/12/24 03:10:14;;;;;;;;;;;6.00;57.90;;;;;;5113459;28;20002;-65
2021/12/24 03:12:43;;;;;;;;;;;6.00;58.00;;;;;;5113557;28;19950;-65
2021/12/24 03:15:10;;;;;;;;;;;6.00;58.00;;;;;;5113046;28;19968;-65
2021/12/24 03:17:36;;;;;;;;;;;6.00;58.10;;;;;;5113496;28;20380;-65
2021/12/24 03:20:07;;;;;;;;;;;6.00;58.00;;;;;;5113458;28;19912;-65
2021/12/24 03:24:59;;;;;;;;;;;6.00;58.20;;;;;;5113690;28;19915;-65
2021/12/24 03:27:24;;;;;;;;;;;6.00;58.30;;;;;;5113404;28;19908;-64
2021/12/24 03:29:50;;;;;;;;;;;6.00;58.40;;;;;;5113342;28;19911;-65
2021/12/24 03:32:16;;;;;;;;;;;6.00;58.50;;;;;;5112295;28;19912;-65
2021/12/24 03:34:41;;;;;;;;;;;6.00;58.70;;;;;;5115144;28;20361;-64
2021/12/24 03:37:07;;;;;;;;;;;6.00;58.80;;;;;;5117601;28;19933;-65
2021/12/24 03:39:34;;;;;;;;;;;6.10;59.10;;;;;;5117458;28;19904;-65
2021/12/24 03:41:59;;;;;;;;;;;6.10;59.10;;;;;;5117315;28;19930;-64
2021/12/24 03:44:40;;;;;;;;;;;6.10;59.10;;;;;;5117303;28;20369;-64
2021/12/24 03:47:11;;;;;;;;;;;6.20;59.10;;;;;;5117342;28;19903;-64
2021/12/24 03:54:57;;;;;;;;;;;6.20;58.90;;;;;;5073982;28;20274;-64
2021/12/24 03:57:23;;;;;;;;;;;6.20;58.90;;;;;;5074216;28;19909;-65
2021/12/24 03:59:48;;;;;;;;;;;6.20;59.00;;;;;;5074107;28;20301;-65
2021/12/24 04:02:14;;;;;;;;;;;6.20;59.10;;;;;;5074116;28;19935;-65
2021/12/24 04:04:40;;;;;;;;;;;6.20;59.10;;;;;;5074028;28;19908;-65
2021/12/24 04:07:06;;;;;;;;;;;6.30;59.20;;;;;;5073844;28;19908;-65
2021/12/24 04:09:33;;;;;;;;;;;6.30;59.30;;;;;;5073851;28;20001;-65
2021/12/24 04:11:59;;;;;;;;;;;6.30;59.30;;;;;;5073783;28;19908;-65
2021/12/24 04:14:24;;;;;;;;;;;6.30;59.40;;;;;;5073823;28;20022;-65
2021/12/24 04:16:50;;;;;;;;;;;6.30;59.40;;;;;;5073655;28;19920;-65
2021/12/24 04:24:53;;;;;;;;;;;6.30;59.80;;;;;;5073649;28;20439;-65
2021/12/24 04:27:20;;;;;;;;;;;6.30;59.90;;;;;;5073709;28;19970;-64
2021/12/24 04:29:45;;;;;;;;;;;6.30;59.90;;;;;;5073458;28;20087;-65
2021/12/24 04:32:16;;;;;;;;;;;6.30;59.90;;;;;;5099724;28;20003;-64
2021/12/24 04:34:48;;;;;;;;;;;6.30;59.80;;;;;;5116559;28;19908;-65
2021/12/24 05:02:05;;;;;;;;;;;6.40;59.90;;;;;;5115736;28;19930;-65
2021/12/24 05:04:34;;;;;;;;;;;6.40;59.90;;;;;;5115787;28;19907;-64
2021/12/24 05:07:11;;;;;;;;;;;6.50;60.00;;;;;;5115650;28;20369;-68
2021/12/24 05:09:40;;;;;;;;;;;6.60;59.90;;;;;;5115994;28;19915;-65
2021/12/24 05:12:06;;;;;;;;;;;6.60;59.80;;;;;;5115860;28;19915;-65
2021/12/24 05:14:31;;;;;;;;;;;6.60;59.60;;;;;;5115745;28;19908;-65
2021/12/24 05:17:17;;;;;;;;;;;6.60;59.50;;;;;;5115330;28;20388;-65
2021/12/24 05:22:30;;;;;;;;;;;6.60;59.30;;;;;;5115751;28;19956;-64
2021/12/24 05:24:59;;;;;;;;;;;6.60;59.30;;;;;;5115294;28;19919;-65
2021/12/24 05:27:25;;;;;;;;;;;6.60;59.30;;;;;;5115281;28;19915;-65
2021/12/24 05:29:52;;;;;;;;;;;6.60;59.30;;;;;;5115128;28;19915;-65
2021/12/24 05:32:17;;;;;;;;;;;6.60;59.40;;;;;;5115204;28;19908;-65
2021/12/24 05:34:43;;;;;;;;;;;6.60;59.40;;;;;;5115053;28;19904;-65
2021/12/24 05:37:09;;;;;;;;;;;6.70;59.50;;;;;;5113762;28;20371;-65
2021/12/24 05:39:34;;;;;;;;;;;6.70;59.50;;;;;;5115020;28;19904;-64
2021/12/24 05:42:00;;;;;;;;;;;6.70;59.50;;;;;;5114868;28;19914;-65
2021/12/24 05:44:26;;;;;;;;;;;6.80;59.60;;;;;;5114923;28;19911;-65
2021/12/24 05:46:52;;;;;;;;;;;6.80;59.60;;;;;;5114758;28;19994;-64
2021/12/24 05:49:17;;;;;;;;;;;6.80;59.50;;;;;;5114870;28;19918;-65
2021/12/24 05:51:43;;;;;;;;;;;6.80;59.40;;;;;;5114590;28;19937;-65
2021/12/24 05:54:09;;;;;;;;;;;6.80;59.40;;;;;;5114799;28;19908;-65
2021/12/24 05:56:35;;;;;;;;;;;6.80;59.40;;;;;;5114393;28;19908;-65
2021/12/24 05:59:01;;;;;;;;;;;6.80;59.50;;;;;;5114231;28;19936;-65
2021/12/24 06:01:27;;;;;;;;;;;6.80;59.50;;;;;;5114592;28;20380;-65
2021/12/24 06:03:52;;;;;;;;;;;6.80;59.40;;;;;;5114557;28;19954;-64
2021/12/24 06:06:18;;;;;;;;;;;6.80;59.50;;;;;;5114486;28;20414;-65
2021/12/24 06:08:44;;;;;;;;;;;6.80;59.50;;;;;;5114452;28;19947;-65
2021/12/24 06:11:09;;;;;;;;;;;6.80;59.50;;;;;;5114349;28;19912;-65
2021/12/24 06:13:36;;;;;;;;;;;6.80;59.50;;;;;;5114278;28;19908;-65
2021/12/24 06:16:02;;;;;;;;;;;6.80;59.50;;;;;;5112708;28;19920;-65
2021/12/24 06:18:29;;;;;;;;;;;6.80;59.50;;;;;;5114251;28;19915;-65
2021/12/24 06:20:56;;;;;;;;;;;6.80;59.50;;;;;;5114226;28;20389;-65
2021/12/24 06:23:24;;;;;;;;;;;6.80;59.60;;;;;;5114199;28;19908;-65
2021/12/24 06:25:51;;;;;;;;;;;6.90;59.60;;;;;;5114030;28;19908;-65
2021/12/24 06:28:16;;;;;;;;;;;6.90;59.60;;;;;;5114105;28;20002;-65
2021/12/24 06:30:42;;;;;;;;;;;6.90;59.60;;;;;;5113889;28;20049;-65
2021/12/24 06:33:08;;;;;;;;;;;7.00;59.70;;;;;;5114025;28;20280;-64
2021/12/24 06:35:34;;;;;;;;;;;7.00;59.70;;;;;;5113919;28;19973;-65
2021/12/24 06:38:00;;;;;;;;;;;7.00;59.60;;;;;;5113892;28;19984;-65
2021/12/24 06:40:25;;;;;;;;;;;7.00;59.60;;;;;;5113791;28;19904;-65
2021/12/24 06:42:51;;;;;;;;;;;7.10;59.70;;;;;;5113809;28;20380;-65
2021/12/24 06:45:23;;;;;;;;;;;7.10;59.60;;;;;;5113734;28;19908;-65
2021/12/24 06:47:53;;;;;;;;;;;7.10;59.60;;;;;;5113804;28;19908;-65
2021/12/24 06:50:19;;;;;;;;;;;7.10;59.60;;;;;;5113649;28;19912;-65
2021/12/24 06:52:44;;;;;;;;;;;7.10;59.70;;;;;;5113725;28;20377;-65
2021/12/24 06:55:10;;;;;;;;;;;7.20;59.70;;;;;;5113660;28;20361;-65
2021/12/24 06:57:37;;;;;;;;;;;7.20;59.70;;;;;;5113572;28;19970;-65
2021/12/24 07:00:03;;;;;;;;;;;7.20;59.70;;;;;;5113632;28;19908;-65
2021/12/24 07:02:29;;;;;;;;;;;7.30;59.70;;;;;;5113646;28;19908;-65
2021/12/24 07:04:54;;;;;;;;;;;7.30;59.70;;;;;;5113571;28;19915;-65
2021/12/24 07:07:20;;;;;;;;;;;7.40;59.70;;;;;;5113477;28;20368;-66
2021/12/24 07:09:46;;;;;;;;;;;7.40;59.70;;;;;;5113401;28;19907;-65
2021/12/24 07:12:12;;;;;;;;;;;7.40;59.60;;;;;;5113385;28;19915;-65
2021/12/24 07:14:39;;;;;;;;;;;7.50;59.60;;;;;;5113301;28;19957;-65
2021/12/24 07:17:05;;;;;;;;;;;7.50;59.50;;;;;;5113321;28;19920;-65
2021/12/24 07:19:31;;;;;;;;;;;7.50;59.50;;;;;;5113455;28;19939;-65
2021/12/24 07:21:56;;;;;;;;;;;7.50;59.40;;;;;;5113788;28;19908;-65
2021/12/24 07:24:22;;;;;;;;;;;7.50;59.40;;;;;;5113360;28;19995;-65
2021/12/24 07:26:47;;;;;;;;;;;7.50;59.40;;;;;;5113373;28;19912;-65
2021/12/24 07:29:13;;;;;;;;;;;7.60;59.40;;;;;;5112019;28;19980;-65
2021/12/24 07:31:39;;;;;;;;;;;7.60;59.50;;;;;;5113297;28;19912;-65
2021/12/24 07:34:04;;;;;;;;;;;7.50;59.40;;;;;;5113361;28;20420;-65
2021/12/24 07:36:30;;;;;;;;;;;7.60;59.40;;;;;;5113300;28;19908;-65
2021/12/24 07:38:55;;;;;;;;;;;7.60;59.50;;;;;;5113356;28;19908;-65
2021/12/24 07:41:21;;;;;;;;;;;7.70;59.50;;;;;;5113307;28;19999;-65
2021/12/24 07:43:47;;;;;;;;;;;7.60;59.50;;;;;;5113248;28;20015;-65
2021/12/24 07:46:13;;;;;;;;;;;7.70;59.50;;;;;;5113356;28;19915;-65
2021/12/24 07:48:49;;;;;;;;;;;7.70;59.50;;;;;;5113185;28;19908;-66
2021/12/24 07:54:21;;;;;;;;;;;7.80;59.70;;;;;;5090725;28;20342;-65
2021/12/24 07:56:47;;;;;;;;;;;7.90;59.80;;;;;;5090767;28;19994;-65
2021/12/24 07:59:14;;;;;;;;;;;7.90;59.80;;;;;;5101027;28;19907;-64
2021/12/24 08:01:41;;;;;;;;;;;8.00;59.80;;;;;;5113054;28;20330;-65
2021/12/24 08:04:06;;;;;;;;;;;8.00;59.80;;;;;;5113002;28;19907;-65
2021/12/24 08:06:32;;;;;;;;;;;8.10;59.70;;;;;;5112988;28;20037;-65
2021/12/24 08:08:58;;;;;;;;;;;8.10;59.70;;;;;;5112980;28;19930;-65
2021/12/24 08:11:23;;;;;;;;;;;8.20;59.60;;;;;;5112920;28;19918;-65
2021/12/24 08:13:49;;;;;;;;;;;8.20;59.60;;;;;;5112922;28;19976;-65
2021/12/24 08:16:15;;;;;;;;;;;8.20;59.50;;;;;;5112750;28;20426;-64
2021/12/24 08:18:43;;;;;;;;;;;8.30;59.50;;;;;;5112894;28;20365;-65
2021/12/24 08:21:09;;;;;;;;;;;8.30;59.50;;;;;;5114715;28;19908;-65
2021/12/24 08:23:35;;;;;;;;;;;8.30;59.50;;;;;;5116576;28;20364;-65
2021/12/24 08:26:01;;;;;;;;;;;8.30;59.50;;;;;;5115038;28;19907;-65
2021/12/24 08:28:27;;;;;;;;;;;8.40;59.50;;;;;;5116490;28;19908;-65
2021/12/24 08:30:53;;;;;;;;;;;8.40;59.50;;;;;;5116316;28;19912;-65
2021/12/24 08:33:19;;;;;;;;;;;8.50;59.50;;;;;;5116372;28;20281;-65
2021/12/24 08:35:44;;;;;;;;;;;8.50;59.50;;;;;;5116277;28;19908;-65
2021/12/24 08:38:10;;;;;;;;;;;8.50;59.50;;;;;;5116275;27;19956;-65
2021/12/24 08:40:36;;;;;;;;;;;8.60;59.50;;;;;;5116164;28;20042;-64
2021/12/24 08:43:05;;;;;;;;;;;8.60;59.50;;;;;;5115998;28;19908;-64
2021/12/24 08:45:30;;;;;;;;;;;8.60;59.50;;;;;;5116155;28;20001;-65
2021/12/24 08:47:56;;;;;;;;;;;8.70;59.50;;;;;;5116059;28;19908;-65
2021/12/24 08:50:21;;;;;;;;;;;8.70;59.40;;;;;;5115932;28;20277;-64
2021/12/24 08:52:47;;;;;;;;;;;8.70;59.30;;;;;;5115898;28;19943;-65
2021/12/24 08:55:14;;;;;;;;;;;8.70;59.30;;;;;;5115847;28;19904;-65
2021/12/24 08:57:40;;;;;;;;;;;8.80;59.20;;;;;;5115841;28;19908;-64
2021/12/24 09:00:06;;;;;;;;;;;8.80;59.80;;;;;;5114527;28;20266;-65
2021/12/24 09:02:32;;;;;;;;;;;8.80;59.10;;;;;;5115546;28;19914;-65
2021/12/24 09:04:58;;;;;;;;;;;8.80;59.10;;;;;;5115647;28;20172;-65
2021/12/24 09:07:23;;;;;;;;;;;8.80;59.10;;;;;;5115619;28;19904;-65
2021/12/24 09:09:49;;;;;;;;;;;8.80;59.00;;;;;;5115562;28;19956;-64
2021/12/24 09:12:14;;;;;;;;;;;8.80;59.10;;;;;;5115695;28;19907;-65
2021/12/24 09:14:40;;;;;;;;;;;8.80;59.10;;;;;;5115403;28;19953;-64
2021/12/24 09:17:06;;;;;;;;;;;8.80;59.20;;;;;;5115278;28;20261;-65
2021/12/24 09:19:33;;;;;;;;;;;8.90;59.30;;;;;;5115506;28;19907;-65
2021/12/24 09:21:58;;;;;;;;;;;8.90;59.40;;;;;;5115286;28;19908;-65
2021/12/24 09:24:29;;;;;;;;;;;8.90;59.40;;;;;;5115492;28;19912;-65
2021/12/24 09:26:57;;;;;;;;;;;9.00;59.50;;;;;;5115374;28;19907;-65
2021/12/24 09:29:23;;;;;;;;;;;9.00;59.40;;;;;;5115210;28;20368;-65
2021/12/24 09:31:48;;;;;;;;;;;9.00;59.40;;;;;;5114199;28;19968;-65
2021/12/24 09:34:14;;;;;;;;;;;9.00;59.30;;;;;;5115003;28;19911;-65
2021/12/24 09:36:40;;;;;;;;;;;9.00;59.20;;;;;;5115153;28;19997;-65
2021/12/24 09:39:05;;;;;;;;;;;9.00;59.10;;;;;;5115077;28;19908;-65
2021/12/24 09:41:32;;;;;;;;;;;9.00;59.10;;;;;;5114893;28;19954;-65
2021/12/24 09:43:59;;;;;;;;;;;9.00;59.20;;;;;;5115284;27;20344;-65
2021/12/24 09:46:25;;;;;;;;;;;9.00;59.30;;;;;;5114968;28;20321;-65
2021/12/24 09:48:51;;;;;;;;;;;9.10;59.40;;;;;;5114857;28;19915;-65
2021/12/24 09:51:17;;;;;;;;;;;9.10;60.10;;;;;;5114710;28;20280;-66
2021/12/24 09:53:42;;;;;;;;;;;9.20;59.50;;;;;;5114759;28;19908;-64
2021/12/24 09:56:08;;;;;;;;;;;9.20;59.40;;;;;;5114757;28;19904;-65
2021/12/24 09:58:33;;;;;;;;;;;9.20;59.20;;;;;;5114649;28;19908;-65
2021/12/24 10:00:59;;;;;;;;;;;9.20;59.10;;;;;;5114645;28;19907;-65
2021/12/24 10:03:29;;;;;;;;;;;9.20;59.10;;;;;;5114677;28;20003;-64
2021/12/24 10:05:55;;;;;;;;;;;9.20;59.10;;;;;;5114543;28;20349;-65
2021/12/24 10:08:23;;;;;;;;;;;9.20;59.10;;;;;;5114543;27;19995;-65
2021/12/24 10:10:51;;;;;;;;;;;9.20;59.10;;;;;;5114359;28;20336;-65
2021/12/24 10:13:25;;;;;;;;;;;9.20;59.10;;;;;;5114333;28;20384;-65
2021/12/24 10:15:52;;;;;;;;;;;9.20;59.10;;;;;;5114035;28;19949;-65
2021/12/24 10:18:35;;;;;;;;;;;9.20;59.10;;;;;;5114275;28;19918;-65
2021/12/24 10:21:06;;;;;;;;;;;9.20;59.20;;;;;;5114156;28;19994;-65
2021/12/24 10:23:40;;;;;;;;;;;9.20;59.20;;;;;;5114314;28;19908;-65
2021/12/24 10:26:13;;;;;;;;;;;9.30;59.30;;;;;;5114185;28;19946;-64
2021/12/24 10:28:47;;;;;;;;;;;9.30;59.20;;;;;;5114151;28;19947;-65
2021/12/24 10:31:16;;;;;;;;;;;9.30;59.30;;;;;;5114051;28;20010;-65
2021/12/24 10:34:02;;;;;;;;;;;9.40;59.30;;;;;;5113992;28;19908;-65
2021/12/24 10:36:27;;;;;;;;;;;9.40;59.30;;;;;;5114072;28;19960;-65
2021/12/24 10:38:56;;;;;;;;;;;9.50;59.40;;;;;;5114169;28;19908;-66
2021/12/24 10:41:24;;;;;;;;;;;9.50;59.40;;;;;;5114046;28;19914;-65
2021/12/24 10:43:51;;;;;;;;;;;9.50;59.30;;;;;;5113592;28;20281;-65
2021/12/24 10:46:24;;;;;;;;;;;9.60;59.30;;;;;;5113876;28;19915;-65
2021/12/24 10:49:18;;;;;;;;;;;9.60;59.20;;;;;;5113845;28;19918;-65
2021/12/24 10:54:47;;;;;;;;;;;9.60;59.10;;;;;;5113746;28;19908;-65
2021/12/24 10:57:16;;;;;;;;;;;9.70;59.20;;;;;;5113651;28;19931;-65
2021/12/24 10:59:43;;;;;;;;;;;9.70;59.20;;;;;;5113651;28;19943;-65
2021/12/24 11:02:10;;;;;;;;;;;9.70;59.20;;;;;;5113667;28;20400;-65
2021/12/24 11:04:36;;;;;;;;;;;9.80;59.30;;;;;;5113658;28;19998;-65
2021/12/24 11:07:02;;;;;;;;;;;9.80;59.30;;;;;;5113639;28;19954;-65
2021/12/24 11:09:27;;;;;;;;;;;9.80;59.30;;;;;;5113619;28;19914;-65
2021/12/24 11:11:55;;;;;;;;;;;9.90;59.40;;;;;;5113579;28;19955;-65
2021/12/24 11:14:21;;;;;;;;;;;9.90;59.40;;;;;;5113374;28;20376;-65
2021/12/24 11:16:47;;;;;;;;;;;10.00;59.40;;;;;;5113268;28;20005;-65
2021/12/24 11:19:13;;;;;;;;;;;10.00;59.40;;;;;;5113445;28;19942;-65
2021/12/24 11:21:38;;;;;;;;;;;10.00;59.40;;;;;;5113436;28;19908;-64
2021/12/24 11:24:04;;;;;;;;;;;10.00;59.50;;;;;;5113367;28;19960;-65
2021/12/24 11:26:32;;;;;;;;;;;10.10;59.60;;;;;;5113315;28;19907;-64
2021/12/24 11:28:58;;;;;;;;;;;10.20;59.70;;;;;;5113317;28;19907;-65
2021/12/24 11:31:26;;;;;;;;;;;10.20;59.80;;;;;;5113242;28;19918;-64
2021/12/24 11:33:52;;;;;;;;;;;10.30;59.80;;;;;;5113261;28;19908;-64
2021/12/24 11:36:19;;;;;;;;;;;10.30;59.90;;;;;;5113243;28;19957;-64
2021/12/24 11:38:45;;;;;;;;;;;10.40;60.00;;;;;;5113148;28;20365;-65
2021/12/24 11:41:14;;;;;;;;;;;10.50;60.00;;;;;;5113046;28;19957;-64
2021/12/24 11:43:41;;;;;;;;;;;10.60;60.20;;;;;;5113165;28;19908;-65
2021/12/24 11:46:08;;;;;;;;;;;10.70;60.20;;;;;;5113130;28;20339;-65
2021/12/24 11:48:34;;;;;;;;;;;10.80;60.30;;;;;;5113097;28;19957;-64
2021/12/24 11:51:01;;;;;;;;;;;10.80;60.30;;;;;;5113028;28;20388;-64
2021/12/24 11:53:28;;;;;;;;;;;10.90;60.30;;;;;;5113071;28;19999;-64
2021/12/24 11:55:53;;;;;;;;;;;11.00;60.30;;;;;;5114620;28;20369;-64
2021/12/24 11:58:23;;;;;;;;;;;11.10;60.20;;;;;;5117009;28;19908;-65
2021/12/24 12:00:51;;;;;;;;;;;11.10;60.10;;;;;;5117232;28;20382;-65
2021/12/24 12:03:32;;;;;;;;;;;11.20;60.20;;;;;;5116885;28;19908;-64
2021/12/24 12:05:58;;;;;;;;;;;11.20;60.10;;;;;;5116867;28;19953;-65
2021/12/24 12:08:24;;;;;;;;;;;11.20;60.00;;;;;;5116901;28;19992;-64
2021/12/24 12:10:51;;;;;;;;;;;11.20;60.00;;;;;;5116744;27;20388;-65
2021/12/24 12:13:36;;;;;;;;;;;11.20;60.00;;;;;;5116785;28;19964;-65
2021/12/24 12:16:01;;;;;;;;;;;11.30;60.00;;;;;;5116378;28;19919;-65
2021/12/24 12:18:32;;;;;;;;;;;11.30;60.10;;;;;;5116674;28;19908;-65
2021/12/24 12:21:08;;;;;;;;;;;11.30;60.10;;;;;;5116527;28;20363;-65
2021/12/24 12:24:56;;;;;;;;;;;11.30;60.10;;;;;;5116469;27;19907;-65
2021/12/24 12:26:36;;;;;;;;;;;11.30;60.10;;;;;;5116271;28;19914;-65
2021/12/24 12:29:17;;;;;;;;;;;11.30;60.10;;;;;;5115942;28;20568;-65
2021/12/24 12:31:42;;;;;;;;;;;11.30;60.30;;;;;;5116344;28;19912;-65
2021/12/24 12:34:27;;;;;;;;;;;11.30;60.30;;;;;;5116274;28;19908;-65
2021/12/24 12:36:52;;;;;;;;;;;11.40;60.30;;;;;;5116162;27;20322;-65
2021/12/24 12:39:27;;;;;;;;;;;11.40;60.30;;;;;;5116202;28;20022;-65
2021/12/24 12:41:53;;;;;;;;;;;11.40;60.40;;;;;;5116266;28;19995;-65
2021/12/24 12:44:19;;;;;;;;;;;11.40;60.40;;;;;;5114749;28;20020;-65
2021/12/24 12:46:47;;;;;;;;;;;11.50;60.40;;;;;;5115880;28;19908;-65
2021/12/24 12:49:17;;;;;;;;;;;11.50;60.40;;;;;;5115918;28;20282;-65
2021/12/24 12:51:50;;;;;;;;;;;11.50;60.30;;;;;;5114576;28;19915;-65
2021/12/24 12:54:30;;;;;;;;;;;11.50;60.30;;;;;;5115849;28;19986;-65
2021/12/24 12:57:09;;;;;;;;;;;11.50;60.30;;;;;;5115877;28;20318;-65
2021/12/24 12:59:35;;;;;;;;;;;11.60;60.40;;;;;;5115936;28;20056;-65
2021/12/24 13:02:01;;;;;;;;;;;11.60;60.40;;;;;;5115829;28;19945;-65
2021/12/24 13:04:27;;;;;;;;;;;11.60;60.50;;;;;;5114273;28;19908;-65
2021/12/24 13:06:53;;;;;;;;;;;11.60;60.60;;;;;;5115239;28;19915;-65
2021/12/24 13:09:45;;;;;;;;;;;11.60;60.60;;;;;;5115339;27;20361;-65
2021/12/24 13:12:11;;;;;;;;;;;11.60;60.60;;;;;;5112472;27;19912;-65
2021/12/24 13:14:36;;;;;;;;;;;11.70;60.70;;;;;;5115393;28;20001;-65
2021/12/24 13:24:56;;;;;;;;;;;11.80;60.70;;;;;;5115619;27;20349;-65
2021/12/24 13:27:24;;;;;;;;;;;11.80;60.70;;;;;;5115339;28;19953;-65
2021/12/24 13:30:04;;;;;;;;;;;11.80;60.70;;;;;;5115194;28;19945;-65
2021/12/24 13:32:29;;;;;;;;;;;11.90;60.90;;;;;;5115151;28;20330;-65
2021/12/24 13:34:55;;;;;;;;;;;11.90;60.80;;;;;;5114979;28;19914;-65
2021/12/24 13:37:21;;;;;;;;;;;11.90;60.80;;;;;;5115064;28;19907;-65
2021/12/24 13:39:48;;;;;;;;;;;11.90;60.80;;;;;;5115013;28;19957;-65
2021/12/24 13:42:14;;;;;;;;;;;11.90;60.80;;;;;;5114910;28;19914;-65
2021/12/24 13:44:40;;;;;;;;;;;11.90;60.90;;;;;;5113702;28;19908;-65
2021/12/24 13:47:09;;;;;;;;;;;12.00;60.90;;;;;;5114738;28;19926;-65
2021/12/24 13:54:50;;;;;;;;;;;11.90;60.90;;;;;;5114749;28;19930;-65
2021/12/24 13:57:17;;;;;;;;;;;11.90;61.00;;;;;;5114588;28;20408;-66
2021/12/24 13:59:42;;;;;;;;;;;11.90;61.00;;;;;;5114672;28;20277;-65
2021/12/24 14:02:09;;;;;;;;;;;11.90;61.10;;;;;;5114594;28;19908;-66
2021/12/24 14:04:35;;;;;;;;;;;11.90;61.10;;;;;;5114501;28;19922;-65
2021/12/24 14:07:00;;;;;;;;;;;11.90;61.20;;;;;;5114506;28;19938;-65
2021/12/24 14:09:30;;;;;;;;;;;11.80;61.20;;;;;;5114544;28;19907;-65
2021/12/24 14:11:56;;;;;;;;;;;11.90;61.50;;;;;;5113042;28;20007;-65
2021/12/24 14:17:21;;;;;;;;;;;11.90;61.50;;;;;;5114128;28;19959;-65
2021/12/24 14:19:50;;;;;;;;;;;11.90;61.50;;;;;;5113400;28;20357;-65
2021/12/24 14:22:16;;;;;;;;;;;11.90;61.50;;;;;;5114136;28;20383;-65
2021/12/24 14:24:54;;;;;;;;;;;12.00;61.60;;;;;;5112846;28;19914;-65
2021/12/24 14:27:21;;;;;;;;;;;12.00;61.60;;;;;;5113914;28;19960;-66
2021/12/24 14:29:53;;;;;;;;;;;12.00;61.60;;;;;;5113874;28;19915;-65
2021/12/24 14:32:32;;;;;;;;;;;12.00;61.60;;;;;;5113972;28;19911;-65
2021/12/24 14:35:00;;;;;;;;;;;12.00;61.60;;;;;;5113934;28;19908;-66
2021/12/24 14:37:32;;;;;;;;;;;12.00;61.70;;;;;;5114354;28;20258;-65
2021/12/24 14:40:09;;;;;;;;;;;12.00;61.70;;;;;;5112783;28;19908;-65
2021/12/24 14:42:41;;;;;;;;;;;12.00;61.70;;;;;;5113992;28;19939;-65
2021/12/24 14:45:12;;;;;;;;;;;12.00;61.70;;;;;;5113826;28;19908;-66
2021/12/24 14:47:39;;;;;;;;;;;12.00;61.70;;;;;;5113791;28;19907;-65
2021/12/24 14:50:07;;;;;;;;;;;12.00;61.70;;;;;;5113612;28;20000;-66
2021/12/24 14:52:33;;;;;;;;;;;12.00;61.70;;;;;;5113773;28;19908;-65
2021/12/24 14:55:05;;;;;;;;;;;12.00;61.70;;;;;;5112691;28;20269;-65
2021/12/24 14:57:35;;;;;;;;;;;12.10;61.70;;;;;;5113732;28;20024;-65
2021/12/24 15:00:07;;;;;;;;;;;12.10;61.80;;;;;;5113739;28;19908;-65
2021/12/24 15:02:38;;;;;;;;;;;12.10;61.80;;;;;;5113641;28;19908;-65
2021/12/24 15:05:03;;;;;;;;;;;12.10;61.90;;;;;;5113990;28;19911;-65
2021/12/24 15:07:30;;;;;;;;;;;12.10;61.90;;;;;;5113630;28;19908;-65
2021/12/24 15:10:11;;;;;;;;;;;12.10;61.90;;;;;;5112284;28;19955;-65
2021/12/24 15:12:47;;;;;;;;;;;12.00;61.90;;;;;;5113519;28;19911;-65
2021/12/24 15:15:13;;;;;;;;;;;12.00;61.90;;;;;;5113193;28;19920;-65
2021/12/24 15:17:42;;;;;;;;;;;12.00;61.90;;;;;;5113410;28;20383;-65
2021/12/24 15:20:11;;;;;;;;;;;12.00;62.00;;;;;;5113353;28;19950;-65
2021/12/24 15:22:37;;;;;;;;;;;12.00;62.00;;;;;;5113359;28;20325;-65
2021/12/24 15:25:06;;;;;;;;;;;12.00;62.10;;;;;;5113294;28;19908;-65
2021/12/24 15:27:35;;;;;;;;;;;12.00;62.20;;;;;;5113349;28;20434;-64
2021/12/24 15:30:02;;;;;;;;;;;12.00;62.30;;;;;;5114992;28;20353;-65
2021/12/24 15:32:28;;;;;;;;;;;12.00;62.40;;;;;;5117373;28;19957;-65
2021/12/24 15:34:53;;;;;;;;;;;12.00;62.50;;;;;;5117396;28;19998;-65
2021/12/24 15:37:20;;;;;;;;;;;12.00;62.50;;;;;;5117228;28;20619;-64
2021/12/24 15:39:46;;;;;;;;;;;12.00;62.50;;;;;;5117350;28;19908;-64
2021/12/24 15:42:11;;;;;;;;;;;12.00;62.50;;;;;;5117390;28;20007;-64
2021/12/24 15:44:42;;;;;;;;;;;12.00;62.50;;;;;;5117287;28;19915;-65
2021/12/24 15:47:08;;;;;;;;;;;12.00;62.50;;;;;;5117276;28;19914;-65
2021/12/24 15:49:33;;;;;;;;;;;12.00;62.50;;;;;;5117259;28;19999;-65
2021/12/24 15:51:59;;;;;;;;;;;12.00;62.60;;;;;;5116926;28;19915;-65
2021/12/24 15:54:25;;;;;;;;;;;12.00;62.60;;;;;;5117164;28;19908;-65
2021/12/24 15:56:50;;;;;;;;;;;12.00;62.60;;;;;;5117238;27;19908;-65
2021/12/24 15:59:16;;;;;;;;;;;12.00;62.70;;;;;;5117179;28;20361;-65
2021/12/24 16:01:41;;;;;;;;;;;12.00;62.70;;;;;;5117244;28;19943;-65
2021/12/24 16:04:07;;;;;;;;;;;11.90;62.70;;;;;;5116987;28;20406;-65
2021/12/24 16:06:33;;;;;;;;;;;12.00;62.80;;;;;;5116906;28;19908;-64
2021/12/24 16:08:58;;;;;;;;;;;12.00;62.80;;;;;;5116837;28;19939;-65
2021/12/24 16:11:24;;;;;;;;;;;12.00;62.90;;;;;;5116582;28;19935;-65
2021/12/24 16:13:49;;;;;;;;;;;12.00;62.90;;;;;;5116586;28;19908;-65
2021/12/24 16:16:22;;;;;;;;;;;12.00;62.90;;;;;;5116454;28;19920;-65
2021/12/24 16:18:49;;;;;;;;;;;12.00;63.00;;;;;;5116644;28;20002;-65
2021/12/24 16:21:15;;;;;;;;;;;12.00;63.10;;;;;;5116554;28;19904;-65
2021/12/24 16:23:41;;;;;;;;;;;12.00;63.10;;;;;;5116405;28;19912;-65